sensor_id;sensor_type;location;lat;lon;timestamp;P1;durP1;ratioP1;P2;durP2;ratioP2
72517;SDS011;60540;51.178;6.738;2022-09-27T00:01:04;4.22;;;2.55;;
72517;SDS011;60540;51.178;6.738;2022-09-27T00:03:37;4.82;;;2.22;;
72517;SDS011;60540;51.178;6.738;2022-09-27T00:06:07;4.85;;;2.00;;
72517;SDS011;60540;51.178;6.738;2022-09-27T00:08:40;3.78;;;1.92;;
72517;SDS011;60540;51.178;6.738;2022-09-27T00:11:09;5.25;;;2.00;;
72517;SDS011;60540;51.178;6.738;2022-09-27T00:13:38;6.15;;;1.80;;
72517;SDS011;60540;51.178;6.738;2022-09-27T00:16:03;4.55;;;2.03;;
72517;SDS011;60540;51.178;6.738;2022-09-27T00:18:30;6.25;;;1.88;;
72517;SDS011;60540;51.178;6.738;2022-09-27T00:20:55;4.13;;;1.90;;
72517;SDS011;60540;51.178;6.738;2022-09-27T00:23:21;5.10;;;2.10;;
72517;SDS011;60540;51.178;6.738;2022-09-27T00:25:53;5.78;;;2.38;;
72517;SDS011;60540;51.178;6.738;2022-09-27T00:28:22;7.05;;;2.30;;
72517;SDS011;60540;51.178;6.738;2022-09-27T00:30:48;6.57;;;2.40;;
72517;SDS011;60540;51.178;6.738;2022-09-27T00:33:13;8.50;;;2.50;;
72517;SDS011;60540;51.178;6.738;2022-09-27T00:35:39;6.43;;;2.45;;
72517;SDS011;60540;51.178;6.738;2022-09-27T00:38:05;6.80;;;2.20;;
72517;SDS011;60540;51.178;6.738;2022-09-27T00:40:31;6.30;;;2.13;;
72517;SDS011;60540;51.178;6.738;2022-09-27T00:42:57;5.28;;;2.13;;
72517;SDS011;60540;51.178;6.738;2022-09-27T00:45:22;3.92;;;2.22;;
72517;SDS011;60540;51.178;6.738;2022-09-27T00:53:17;4.45;;;2.28;;
72517;SDS011;60540;51.178;6.738;2022-09-27T00:55:53;8.60;;;2.70;;
72517;SDS011;60540;51.178;6.738;2022-09-27T00:58:29;8.30;;;2.40;;
72517;SDS011;60540;51.178;6.738;2022-09-27T01:01:02;5.60;;;2.78;;
72517;SDS011;60540;51.178;6.738;2022-09-27T01:03:35;6.75;;;2.40;;
72517;SDS011;60540;51.178;6.738;2022-09-27T01:06:05;6.05;;;2.05;;
72517;SDS011;60540;51.178;6.738;2022-09-27T01:08:32;4.97;;;1.98;;
72517;SDS011;60540;51.178;6.738;2022-09-27T01:11:02;4.63;;;1.70;;
72517;SDS011;60540;51.178;6.738;2022-09-27T01:13:45;4.47;;;1.90;;
72517;SDS011;60540;51.178;6.738;2022-09-27T01:19:26;3.40;;;2.00;;
72517;SDS011;60540;51.178;6.738;2022-09-27T01:22:05;3.67;;;1.70;;
72517;SDS011;60540;51.178;6.738;2022-09-27T01:24:41;4.22;;;2.15;;
72517;SDS011;60540;51.178;6.738;2022-09-27T01:27:41;2.92;;;1.60;;
72517;SDS011;60540;51.178;6.738;2022-09-27T01:30:19;5.35;;;1.77;;
72517;SDS011;60540;51.178;6.738;2022-09-27T01:35:35;4.68;;;1.92;;
72517;SDS011;60540;51.178;6.738;2022-09-27T01:38:22;4.65;;;1.95;;
72517;SDS011;60540;51.178;6.738;2022-09-27T01:40:59;5.53;;;2.13;;
72517;SDS011;60540;51.178;6.738;2022-09-27T01:43:31;5.03;;;1.80;;
72517;SDS011;60540;51.178;6.738;2022-09-27T01:45:58;4.53;;;1.92;;
72517;SDS011;60540;51.178;6.738;2022-09-27T01:48:29;4.70;;;1.98;;
72517;SDS011;60540;51.178;6.738;2022-09-27T01:51:03;5.32;;;2.30;;
72517;SDS011;60540;51.178;6.738;2022-09-27T01:53:47;6.57;;;2.20;;
72517;SDS011;60540;51.178;6.738;2022-09-27T01:56:24;4.50;;;2.22;;
72517;SDS011;60540;51.178;6.738;2022-09-27T01:58:55;5.10;;;2.10;;
72517;SDS011;60540;51.178;6.738;2022-09-27T02:01:25;4.63;;;2.42;;
72517;SDS011;60540;51.178;6.738;2022-09-27T02:03:53;6.57;;;2.00;;
72517;SDS011;60540;51.178;6.738;2022-09-27T02:06:24;7.47;;;2.60;;
72517;SDS011;60540;51.178;6.738;2022-09-27T02:08:53;7.05;;;2.72;;
72517;SDS011;60540;51.178;6.738;2022-09-27T02:11:23;4.97;;;2.45;;
72517;SDS011;60540;51.178;6.738;2022-09-27T02:13:52;5.28;;;2.42;;
72517;SDS011;60540;51.178;6.738;2022-09-27T02:22:15;7.97;;;2.35;;
72517;SDS011;60540;51.178;6.738;2022-09-27T02:24:47;5.13;;;3.13;;
72517;SDS011;60540;51.178;6.738;2022-09-27T02:27:19;4.78;;;2.70;;
72517;SDS011;60540;51.178;6.738;2022-09-27T02:30:08;5.20;;;2.58;;
72517;SDS011;60540;51.178;6.738;2022-09-27T02:32:36;6.60;;;2.47;;
72517;SDS011;60540;51.178;6.738;2022-09-27T02:35:16;5.15;;;2.92;;
72517;SDS011;60540;51.178;6.738;2022-09-27T02:37:44;6.10;;;2.80;;
72517;SDS011;60540;51.178;6.738;2022-09-27T02:40:10;4.93;;;2.55;;
72517;SDS011;60540;51.178;6.738;2022-09-27T02:42:35;7.93;;;2.88;;
72517;SDS011;60540;51.178;6.738;2022-09-27T02:45:02;5.47;;;2.92;;
72517;SDS011;60540;51.178;6.738;2022-09-27T02:50:47;6.65;;;2.85;;
72517;SDS011;60540;51.178;6.738;2022-09-27T02:53:25;4.03;;;2.33;;
72517;SDS011;60540;51.178;6.738;2022-09-27T02:56:25;4.63;;;2.30;;
72517;SDS011;60540;51.178;6.738;2022-09-27T03:04:22;6.30;;;3.10;;
72517;SDS011;60540;51.178;6.738;2022-09-27T03:06:52;5.97;;;2.30;;
72517;SDS011;60540;51.178;6.738;2022-09-27T03:09:19;5.60;;;2.78;;
72517;SDS011;60540;51.178;6.738;2022-09-27T03:11:46;6.30;;;2.10;;
72517;SDS011;60540;51.178;6.738;2022-09-27T03:14:13;3.78;;;2.00;;
72517;SDS011;60540;51.178;6.738;2022-09-27T03:16:39;3.58;;;2.10;;
72517;SDS011;60540;51.178;6.738;2022-09-27T03:19:04;4.07;;;2.42;;
72517;SDS011;60540;51.178;6.738;2022-09-27T03:21:30;4.20;;;1.83;;
72517;SDS011;60540;51.178;6.738;2022-09-27T03:23:56;4.47;;;1.63;;
72517;SDS011;60540;51.178;6.738;2022-09-27T03:26:21;4.35;;;1.30;;
72517;SDS011;60540;51.178;6.738;2022-09-27T03:28:47;5.03;;;1.50;;
72517;SDS011;60540;51.178;6.738;2022-09-27T03:31:12;4.47;;;1.70;;
72517;SDS011;60540;51.178;6.738;2022-09-27T03:33:39;3.70;;;1.27;;
72517;SDS011;60540;51.178;6.738;2022-09-27T03:36:05;2.40;;;1.20;;
72517;SDS011;60540;51.178;6.738;2022-09-27T03:38:31;5.32;;;1.40;;
72517;SDS011;60540;51.178;6.738;2022-09-27T03:40:56;3.08;;;1.52;;
72517;SDS011;60540;51.178;6.738;2022-09-27T03:43:23;3.78;;;1.10;;
72517;SDS011;60540;51.178;6.738;2022-09-27T03:45:49;2.92;;;1.20;;
72517;SDS011;60540;51.178;6.738;2022-09-27T03:48:14;3.17;;;1.30;;
72517;SDS011;60540;51.178;6.738;2022-09-27T03:50:40;3.80;;;1.60;;
72517;SDS011;60540;51.178;6.738;2022-09-27T03:53:06;4.32;;;1.58;;
72517;SDS011;60540;51.178;6.738;2022-09-27T03:55:32;5.00;;;1.60;;
72517;SDS011;60540;51.178;6.738;2022-09-27T03:57:57;4.13;;;1.90;;
72517;SDS011;60540;51.178;6.738;2022-09-27T04:00:27;4.90;;;1.88;;
72517;SDS011;60540;51.178;6.738;2022-09-27T04:02:53;5.20;;;2.10;;
72517;SDS011;60540;51.178;6.738;2022-09-27T04:05:18;5.07;;;2.17;;
72517;SDS011;60540;51.178;6.738;2022-09-27T04:07:47;3.58;;;1.85;;
72517;SDS011;60540;51.178;6.738;2022-09-27T04:10:13;5.40;;;1.70;;
72517;SDS011;60540;51.178;6.738;2022-09-27T04:12:39;5.20;;;2.40;;
72517;SDS011;60540;51.178;6.738;2022-09-27T04:15:05;4.10;;;1.90;;
72517;SDS011;60540;51.178;6.738;2022-09-27T04:17:33;3.45;;;1.63;;
72517;SDS011;60540;51.178;6.738;2022-09-27T04:19:59;5.75;;;2.30;;
72517;SDS011;60540;51.178;6.738;2022-09-27T04:22:26;3.35;;;1.65;;
72517;SDS011;60540;51.178;6.738;2022-09-27T04:24:52;3.88;;;1.48;;
72517;SDS011;60540;51.178;6.738;2022-09-27T04:27:18;4.47;;;1.50;;
72517;SDS011;60540;51.178;6.738;2022-09-27T04:29:43;2.90;;;1.70;;
72517;SDS011;60540;51.178;6.738;2022-09-27T04:32:10;3.63;;;1.48;;
72517;SDS011;60540;51.178;6.738;2022-09-27T04:34:37;6.15;;;2.08;;
72517;SDS011;60540;51.178;6.738;2022-09-27T04:37:21;4.25;;;1.70;;
72517;SDS011;60540;51.178;6.738;2022-09-27T04:39:47;4.47;;;1.33;;
72517;SDS011;60540;51.178;6.738;2022-09-27T04:42:13;3.03;;;1.20;;
72517;SDS011;60540;51.178;6.738;2022-09-27T04:44:39;3.95;;;1.40;;
72517;SDS011;60540;51.178;6.738;2022-09-27T04:47:05;3.72;;;1.67;;
72517;SDS011;60540;51.178;6.738;2022-09-27T04:49:31;3.95;;;1.65;;
72517;SDS011;60540;51.178;6.738;2022-09-27T04:51:57;5.30;;;1.65;;
72517;SDS011;60540;51.178;6.738;2022-09-27T04:54:22;4.00;;;1.55;;
72517;SDS011;60540;51.178;6.738;2022-09-27T04:56:48;4.68;;;1.75;;
72517;SDS011;60540;51.178;6.738;2022-09-27T04:59:14;5.32;;;1.83;;
72517;SDS011;60540;51.178;6.738;2022-09-27T05:01:39;3.72;;;1.58;;
72517;SDS011;60540;51.178;6.738;2022-09-27T05:04:05;2.40;;;1.60;;
72517;SDS011;60540;51.178;6.738;2022-09-27T05:06:31;3.28;;;1.60;;
72517;SDS011;60540;51.178;6.738;2022-09-27T05:08:56;5.00;;;1.67;;
72517;SDS011;60540;51.178;6.738;2022-09-27T05:11:23;3.60;;;1.45;;
72517;SDS011;60540;51.178;6.738;2022-09-27T05:13:49;4.55;;;1.70;;
72517;SDS011;60540;51.178;6.738;2022-09-27T05:16:14;3.33;;;1.10;;
72517;SDS011;60540;51.178;6.738;2022-09-27T05:18:41;3.85;;;1.30;;
72517;SDS011;60540;51.178;6.738;2022-09-27T05:21:06;3.35;;;1.45;;
72517;SDS011;60540;51.178;6.738;2022-09-27T05:23:32;3.95;;;1.17;;
72517;SDS011;60540;51.178;6.738;2022-09-27T05:26:02;3.92;;;1.35;;
72517;SDS011;60540;51.178;6.738;2022-09-27T05:28:28;1.65;;;1.17;;
72517;SDS011;60540;51.178;6.738;2022-09-27T05:30:55;3.03;;;1.08;;
72517;SDS011;60540;51.178;6.738;2022-09-27T05:33:21;3.03;;;1.30;;
72517;SDS011;60540;51.178;6.738;2022-09-27T05:35:53;3.67;;;1.10;;
72517;SDS011;60540;51.178;6.738;2022-09-27T05:38:20;4.93;;;1.23;;
72517;SDS011;60540;51.178;6.738;2022-09-27T05:40:45;3.97;;;1.23;;
72517;SDS011;60540;51.178;6.738;2022-09-27T05:43:14;2.92;;;1.10;;
72517;SDS011;60540;51.178;6.738;2022-09-27T05:45:40;5.22;;;1.40;;
72517;SDS011;60540;51.178;6.738;2022-09-27T05:48:06;2.70;;;0.93;;
72517;SDS011;60540;51.178;6.738;2022-09-27T05:50:32;1.67;;;0.93;;
72517;SDS011;60540;51.178;6.738;2022-09-27T05:52:58;3.42;;;1.17;;
72517;SDS011;60540;51.178;6.738;2022-09-27T05:55:23;2.53;;;1.08;;
72517;SDS011;60540;51.178;6.738;2022-09-27T05:57:58;3.65;;;0.95;;
72517;SDS011;60540;51.178;6.738;2022-09-27T06:00:26;2.92;;;1.10;;
72517;SDS011;60540;51.178;6.738;2022-09-27T06:02:56;4.97;;;1.15;;
72517;SDS011;60540;51.178;6.738;2022-09-27T06:05:23;0.95;;;0.80;;
72517;SDS011;60540;51.178;6.738;2022-09-27T06:07:50;2.58;;;1.05;;
72517;SDS011;60540;51.178;6.738;2022-09-27T06:10:17;1.75;;;0.98;;
72517;SDS011;60540;51.178;6.738;2022-09-27T06:12:43;3.13;;;1.10;;
72517;SDS011;60540;51.178;6.738;2022-09-27T06:15:09;4.85;;;2.05;;
72517;SDS011;60540;51.178;6.738;2022-09-27T06:17:35;2.45;;;1.00;;
72517;SDS011;60540;51.178;6.738;2022-09-27T06:20:01;2.67;;;1.10;;
72517;SDS011;60540;51.178;6.738;2022-09-27T06:22:27;3.67;;;1.02;;
72517;SDS011;60540;51.178;6.738;2022-09-27T06:24:53;3.22;;;1.00;;
72517;SDS011;60540;51.178;6.738;2022-09-27T06:27:18;1.50;;;1.05;;
72517;SDS011;60540;51.178;6.738;2022-09-27T06:29:44;1.45;;;1.05;;
72517;SDS011;60540;51.178;6.738;2022-09-27T06:32:10;5.85;;;2.13;;
72517;SDS011;60540;51.178;6.738;2022-09-27T06:34:36;2.25;;;0.80;;
72517;SDS011;60540;51.178;6.738;2022-09-27T06:37:02;2.40;;;1.25;;
72517;SDS011;60540;51.178;6.738;2022-09-27T06:39:27;3.13;;;1.00;;
72517;SDS011;60540;51.178;6.738;2022-09-27T06:41:53;5.75;;;2.13;;
72517;SDS011;60540;51.178;6.738;2022-09-27T06:44:23;2.05;;;1.10;;
72517;SDS011;60540;51.178;6.738;2022-09-27T06:46:49;2.95;;;1.30;;
72517;SDS011;60540;51.178;6.738;2022-09-27T06:49:15;4.18;;;1.15;;
72517;SDS011;60540;51.178;6.738;2022-09-27T06:51:41;4.15;;;1.50;;
72517;SDS011;60540;51.178;6.738;2022-09-27T06:54:07;6.18;;;1.42;;
72517;SDS011;60540;51.178;6.738;2022-09-27T06:56:32;2.78;;;1.00;;
72517;SDS011;60540;51.178;6.738;2022-09-27T06:58:58;2.30;;;0.93;;
72517;SDS011;60540;51.178;6.738;2022-09-27T07:01:42;2.47;;;1.08;;
72517;SDS011;60540;51.178;6.738;2022-09-27T07:04:10;2.78;;;1.10;;
72517;SDS011;60540;51.178;6.738;2022-09-27T07:06:35;5.85;;;1.35;;
72517;SDS011;60540;51.178;6.738;2022-09-27T07:09:02;1.98;;;0.95;;
72517;SDS011;60540;51.178;6.738;2022-09-27T07:11:28;1.70;;;0.80;;
72517;SDS011;60540;51.178;6.738;2022-09-27T07:13:53;2.97;;;1.10;;
72517;SDS011;60540;51.178;6.738;2022-09-27T07:16:20;2.20;;;1.02;;
72517;SDS011;60540;51.178;6.738;2022-09-27T07:18:46;2.05;;;0.80;;
72517;SDS011;60540;51.178;6.738;2022-09-27T07:21:12;2.17;;;1.10;;
72517;SDS011;60540;51.178;6.738;2022-09-27T07:23:40;3.42;;;1.10;;
72517;SDS011;60540;51.178;6.738;2022-09-27T07:26:06;2.15;;;0.95;;
72517;SDS011;60540;51.178;6.738;2022-09-27T07:28:33;1.70;;;0.93;;
72517;SDS011;60540;51.178;6.738;2022-09-27T07:30:59;3.35;;;1.05;;
72517;SDS011;60540;51.178;6.738;2022-09-27T07:33:26;1.90;;;1.00;;
72517;SDS011;60540;51.178;6.738;2022-09-27T07:35:52;2.28;;;1.02;;
72517;SDS011;60540;51.178;6.738;2022-09-27T07:38:18;1.38;;;0.80;;
72517;SDS011;60540;51.178;6.738;2022-09-27T07:40:44;4.43;;;1.08;;
72517;SDS011;60540;51.178;6.738;2022-09-27T07:43:09;1.58;;;0.80;;
72517;SDS011;60540;51.178;6.738;2022-09-27T07:45:36;2.60;;;0.85;;
72517;SDS011;60540;51.178;6.738;2022-09-27T07:48:09;1.65;;;0.80;;
72517;SDS011;60540;51.178;6.738;2022-09-27T07:50:37;3.55;;;0.90;;
72517;SDS011;60540;51.178;6.738;2022-09-27T07:53:03;1.40;;;1.00;;
72517;SDS011;60540;51.178;6.738;2022-09-27T07:55:29;2.28;;;0.82;;
72517;SDS011;60540;51.178;6.738;2022-09-27T07:58:02;1.17;;;0.65;;
72517;SDS011;60540;51.178;6.738;2022-09-27T08:00:29;1.70;;;0.82;;
72517;SDS011;60540;51.178;6.738;2022-09-27T08:02:55;1.75;;;1.00;;
72517;SDS011;60540;51.178;6.738;2022-09-27T08:05:21;3.58;;;1.20;;
72517;SDS011;60540;51.178;6.738;2022-09-27T08:07:46;2.33;;;1.00;;
72517;SDS011;60540;51.178;6.738;2022-09-27T08:10:12;1.50;;;0.80;;
72517;SDS011;60540;51.178;6.738;2022-09-27T08:12:37;1.33;;;0.80;;
72517;SDS011;60540;51.178;6.738;2022-09-27T08:15:03;3.60;;;1.20;;
72517;SDS011;60540;51.178;6.738;2022-09-27T08:17:30;1.67;;;1.00;;
72517;SDS011;60540;51.178;6.738;2022-09-27T08:19:56;1.52;;;1.00;;
72517;SDS011;60540;51.178;6.738;2022-09-27T08:22:22;3.63;;;0.98;;
72517;SDS011;60540;51.178;6.738;2022-09-27T08:24:48;5.45;;;1.30;;
72517;SDS011;60540;51.178;6.738;2022-09-27T08:27:14;3.78;;;1.00;;
72517;SDS011;60540;51.178;6.738;2022-09-27T08:29:41;2.47;;;0.90;;
72517;SDS011;60540;51.178;6.738;2022-09-27T08:34:33;2.90;;;1.10;;
72517;SDS011;60540;51.178;6.738;2022-09-27T08:36:59;1.75;;;1.00;;
72517;SDS011;60540;51.178;6.738;2022-09-27T08:39:24;4.03;;;1.23;;
72517;SDS011;60540;51.178;6.738;2022-09-27T08:47:39;3.80;;;1.60;;
72517;SDS011;60540;51.178;6.738;2022-09-27T08:55:34;2.88;;;1.50;;
72517;SDS011;60540;51.178;6.738;2022-09-27T08:58:03;2.65;;;1.70;;
72517;SDS011;60540;51.178;6.738;2022-09-27T09:00:37;3.70;;;1.80;;
72517;SDS011;60540;51.178;6.738;2022-09-27T09:03:03;2.78;;;1.60;;
72517;SDS011;60540;51.178;6.738;2022-09-27T09:05:29;4.82;;;2.00;;
72517;SDS011;60540;51.178;6.738;2022-09-27T09:14:41;3.78;;;1.70;;
72517;SDS011;60540;51.178;6.738;2022-09-27T09:17:19;3.25;;;2.00;;
72517;SDS011;60540;51.178;6.738;2022-09-27T09:19:54;2.53;;;1.65;;
72517;SDS011;60540;51.178;6.738;2022-09-27T09:28:23;5.68;;;2.78;;
72517;SDS011;60540;51.178;6.738;2022-09-27T09:33:31;5.35;;;1.70;;
72517;SDS011;60540;51.178;6.738;2022-09-27T09:43:39;3.38;;;2.22;;
72517;SDS011;60540;51.178;6.738;2022-09-27T09:46:56;2.70;;;1.50;;
72517;SDS011;60540;51.178;6.738;2022-09-27T09:48:59;4.75;;;1.40;;
72517;SDS011;60540;51.178;6.738;2022-09-27T09:51:37;4.32;;;1.58;;
72517;SDS011;60540;51.178;6.738;2022-09-27T09:59:46;4.50;;;1.63;;
72517;SDS011;60540;51.178;6.738;2022-09-27T10:02:34;2.97;;;2.08;;
72517;SDS011;60540;51.178;6.738;2022-09-27T10:05:03;2.83;;;1.77;;
72517;SDS011;60540;51.178;6.738;2022-09-27T10:09:56;3.70;;;1.92;;
72517;SDS011;60540;51.178;6.738;2022-09-27T10:12:24;4.30;;;2.08;;
72517;SDS011;60540;51.178;6.738;2022-09-27T10:14:50;3.25;;;2.10;;
72517;SDS011;60540;51.178;6.738;2022-09-27T10:17:18;4.20;;;1.85;;
72517;SDS011;60540;51.178;6.738;2022-09-27T10:19:46;3.45;;;2.10;;
72517;SDS011;60540;51.178;6.738;2022-09-27T10:24:52;3.35;;;1.65;;
72517;SDS011;60540;51.178;6.738;2022-09-27T10:27:18;3.58;;;1.70;;
72517;SDS011;60540;51.178;6.738;2022-09-27T10:29:44;3.70;;;1.60;;
72517;SDS011;60540;51.178;6.738;2022-09-27T10:32:23;3.30;;;1.80;;
72517;SDS011;60540;51.178;6.738;2022-09-27T10:34:51;3.20;;;2.00;;
72517;SDS011;60540;51.178;6.738;2022-09-27T10:37:19;3.60;;;2.20;;
72517;SDS011;60540;51.178;6.738;2022-09-27T10:39:47;4.70;;;3.08;;
72517;SDS011;60540;51.178;6.738;2022-09-27T10:42:18;3.92;;;2.38;;
72517;SDS011;60540;51.178;6.738;2022-09-27T10:45:18;4.15;;;2.35;;
72517;SDS011;60540;51.178;6.738;2022-09-27T10:47:48;5.40;;;2.10;;
72517;SDS011;60540;51.178;6.738;2022-09-27T10:50:16;4.18;;;2.55;;
72517;SDS011;60540;51.178;6.738;2022-09-27T10:52:46;5.00;;;2.53;;
72517;SDS011;60540;51.178;6.738;2022-09-27T10:55:22;5.85;;;2.65;;
72517;SDS011;60540;51.178;6.738;2022-09-27T10:57:49;5.75;;;2.75;;
72517;SDS011;60540;51.178;6.738;2022-09-27T11:00:24;4.53;;;2.10;;
72517;SDS011;60540;51.178;6.738;2022-09-27T11:02:53;5.10;;;2.40;;
72517;SDS011;60540;51.178;6.738;2022-09-27T11:07:55;5.72;;;2.30;;
72517;SDS011;60540;51.178;6.738;2022-09-27T11:10:30;5.15;;;2.78;;
72517;SDS011;60540;51.178;6.738;2022-09-27T11:21:14;5.70;;;3.08;;
72517;SDS011;60540;51.178;6.738;2022-09-27T11:32:39;5.97;;;2.67;;
72517;SDS011;60540;51.178;6.738;2022-09-27T11:35:33;4.53;;;2.70;;
72517;SDS011;60540;51.178;6.738;2022-09-27T11:46:31;5.97;;;1.95;;
72517;SDS011;60540;51.178;6.738;2022-09-27T11:55:05;2.75;;;1.88;;
72517;SDS011;60540;51.178;6.738;2022-09-27T11:57:43;4.78;;;1.98;;
72517;SDS011;60540;51.178;6.738;2022-09-27T12:00:20;3.38;;;1.60;;
72517;SDS011;60540;51.178;6.738;2022-09-27T12:05:30;4.63;;;2.05;;
72517;SDS011;60540;51.178;6.738;2022-09-27T12:10:48;4.45;;;2.00;;
72517;SDS011;60540;51.178;6.738;2022-09-27T12:13:26;3.30;;;1.40;;
72517;SDS011;60540;51.178;6.738;2022-09-27T12:15:58;3.90;;;1.52;;
72517;SDS011;60540;51.178;6.738;2022-09-27T12:18:28;3.33;;;1.92;;
72517;SDS011;60540;51.178;6.738;2022-09-27T12:20:58;3.63;;;2.00;;
72517;SDS011;60540;51.178;6.738;2022-09-27T12:23:35;8.80;;;2.80;;
72517;SDS011;60540;51.178;6.738;2022-09-27T12:26:18;5.10;;;2.15;;
72517;SDS011;60540;51.178;6.738;2022-09-27T12:28:48;3.78;;;1.80;;
72517;SDS011;60540;51.178;6.738;2022-09-27T12:31:20;4.25;;;2.00;;
72517;SDS011;60540;51.178;6.738;2022-09-27T12:34:09;1.70;;;1.05;;
72517;SDS011;60540;51.178;6.738;2022-09-27T12:36:36;2.35;;;1.30;;
72517;SDS011;60540;51.178;6.738;2022-09-27T12:39:19;2.88;;;1.60;;
72517;SDS011;60540;51.178;6.738;2022-09-27T12:41:51;5.03;;;1.80;;
72517;SDS011;60540;51.178;6.738;2022-09-27T12:44:25;3.92;;;1.50;;
72517;SDS011;60540;51.178;6.738;2022-09-27T12:46:59;2.38;;;1.00;;
72517;SDS011;60540;51.178;6.738;2022-09-27T12:52:17;1.85;;;1.10;;
72517;SDS011;60540;51.178;6.738;2022-09-27T13:00:17;2.22;;;1.30;;
72517;SDS011;60540;51.178;6.738;2022-09-27T13:11:28;2.22;;;1.10;;
72517;SDS011;60540;51.178;6.738;2022-09-27T13:14:05;2.83;;;1.40;;
72517;SDS011;60540;51.178;6.738;2022-09-27T13:16:44;3.80;;;1.33;;
72517;SDS011;60540;51.178;6.738;2022-09-27T13:22:04;2.47;;;1.20;;
72517;SDS011;60540;51.178;6.738;2022-09-27T13:29:46;2.13;;;1.25;;
72517;SDS011;60540;51.178;6.738;2022-09-27T13:34:53;1.70;;;1.00;;
72517;SDS011;60540;51.178;6.738;2022-09-27T13:37:22;1.38;;;0.80;;
72517;SDS011;60540;51.178;6.738;2022-09-27T13:39:48;1.15;;;0.80;;
72517;SDS011;60540;51.178;6.738;2022-09-27T13:45:25;0.95;;;0.70;;
72517;SDS011;60540;51.178;6.738;2022-09-27T13:47:53;1.25;;;0.75;;
72517;SDS011;60540;51.178;6.738;2022-09-27T13:50:28;1.73;;;0.77;;
72517;SDS011;60540;51.178;6.738;2022-09-27T13:53:20;2.10;;;0.80;;
72517;SDS011;60540;51.178;6.738;2022-09-27T13:55:50;0.68;;;0.60;;
72517;SDS011;60540;51.178;6.738;2022-09-27T14:00:49;1.58;;;0.68;;
72517;SDS011;60540;51.178;6.738;2022-09-27T14:03:27;1.50;;;0.73;;
72517;SDS011;60540;51.178;6.738;2022-09-27T14:06:16;1.50;;;0.90;;
72517;SDS011;60540;51.178;6.738;2022-09-27T14:08:47;1.48;;;0.63;;
72517;SDS011;60540;51.178;6.738;2022-09-27T14:11:15;1.75;;;0.68;;
72517;SDS011;60540;51.178;6.738;2022-09-27T14:13:45;1.25;;;0.80;;
72517;SDS011;60540;51.178;6.738;2022-09-27T14:16:13;1.52;;;0.70;;
72517;SDS011;60540;51.178;6.738;2022-09-27T14:18:50;1.13;;;0.80;;
72517;SDS011;60540;51.178;6.738;2022-09-27T14:21:21;2.45;;;0.77;;
72517;SDS011;60540;51.178;6.738;2022-09-27T14:23:52;0.98;;;0.73;;
72517;SDS011;60540;51.178;6.738;2022-09-27T14:26:22;1.05;;;0.60;;
72517;SDS011;60540;51.178;6.738;2022-09-27T14:28:49;1.33;;;0.57;;
72517;SDS011;60540;51.178;6.738;2022-09-27T14:31:15;0.82;;;0.60;;
72517;SDS011;60540;51.178;6.738;2022-09-27T14:33:43;1.20;;;0.70;;
72517;SDS011;60540;51.178;6.738;2022-09-27T14:39:13;0.70;;;0.70;;
72517;SDS011;60540;51.178;6.738;2022-09-27T14:41:40;1.08;;;0.70;;
72517;SDS011;60540;51.178;6.738;2022-09-27T14:44:24;2.60;;;1.00;;
72517;SDS011;60540;51.178;6.738;2022-09-27T14:47:14;0.75;;;0.70;;
72517;SDS011;60540;51.178;6.738;2022-09-27T14:49:46;1.73;;;1.23;;
72517;SDS011;60540;51.178;6.738;2022-09-27T14:52:17;1.65;;;1.00;;
72517;SDS011;60540;51.178;6.738;2022-09-27T14:54:58;2.90;;;1.05;;
72517;SDS011;60540;51.178;6.738;2022-09-27T14:57:31;1.42;;;0.85;;
72517;SDS011;60540;51.178;6.738;2022-09-27T14:59:59;3.08;;;0.93;;
72517;SDS011;60540;51.178;6.738;2022-09-27T15:02:29;3.35;;;1.05;;
72517;SDS011;60540;51.178;6.738;2022-09-27T15:04:57;1.63;;;1.00;;
72517;SDS011;60540;51.178;6.738;2022-09-27T15:07:23;2.05;;;0.90;;
72517;SDS011;60540;51.178;6.738;2022-09-27T15:09:49;3.15;;;1.00;;
72517;SDS011;60540;51.178;6.738;2022-09-27T15:12:17;1.23;;;0.82;;
72517;SDS011;60540;51.178;6.738;2022-09-27T15:14:49;3.97;;;1.50;;
72517;SDS011;60540;51.178;6.738;2022-09-27T15:17:15;3.38;;;1.20;;
72517;SDS011;60540;51.178;6.738;2022-09-27T15:19:54;2.97;;;1.40;;
72517;SDS011;60540;51.178;6.738;2022-09-27T15:22:22;1.73;;;1.02;;
72517;SDS011;60540;51.178;6.738;2022-09-27T15:25:02;3.42;;;1.20;;
72517;SDS011;60540;51.178;6.738;2022-09-27T15:27:36;5.00;;;1.50;;
72517;SDS011;60540;51.178;6.738;2022-09-27T15:30:03;3.08;;;1.40;;
72517;SDS011;60540;51.178;6.738;2022-09-27T15:32:29;2.83;;;1.13;;
72517;SDS011;60540;51.178;6.738;2022-09-27T15:34:55;4.32;;;1.20;;
72517;SDS011;60540;51.178;6.738;2022-09-27T15:37:35;4.93;;;1.38;;
72517;SDS011;60540;51.178;6.738;2022-09-27T15:40:38;5.63;;;1.40;;
72517;SDS011;60540;51.178;6.738;2022-09-27T15:43:27;2.40;;;1.30;;
72517;SDS011;60540;51.178;6.738;2022-09-27T15:46:00;3.42;;;1.40;;
72517;SDS011;60540;51.178;6.738;2022-09-27T15:48:28;3.47;;;1.40;;
72517;SDS011;60540;51.178;6.738;2022-09-27T15:50:56;2.20;;;1.15;;
72517;SDS011;60540;51.178;6.738;2022-09-27T15:56:00;3.00;;;1.20;;
72517;SDS011;60540;51.178;6.738;2022-09-27T15:58:32;4.32;;;1.60;;
72517;SDS011;60540;51.178;6.738;2022-09-27T16:01:02;5.50;;;1.58;;
72517;SDS011;60540;51.178;6.738;2022-09-27T16:03:32;3.05;;;1.30;;
72517;SDS011;60540;51.178;6.738;2022-09-27T16:05:59;3.60;;;1.40;;
72517;SDS011;60540;51.178;6.738;2022-09-27T16:08:27;3.53;;;1.75;;
72517;SDS011;60540;51.178;6.738;2022-09-27T16:10:54;2.75;;;1.42;;
72517;SDS011;60540;51.178;6.738;2022-09-27T16:13:24;3.40;;;1.40;;
72517;SDS011;60540;51.178;6.738;2022-09-27T16:15:50;3.28;;;1.13;;
72517;SDS011;60540;51.178;6.738;2022-09-27T16:18:16;2.35;;;1.20;;
72517;SDS011;60540;51.178;6.738;2022-09-27T16:20:42;1.67;;;0.90;;
72517;SDS011;60540;51.178;6.738;2022-09-27T16:23:07;3.50;;;1.45;;
72517;SDS011;60540;51.178;6.738;2022-09-27T16:25:33;2.40;;;0.90;;
72517;SDS011;60540;51.178;6.738;2022-09-27T16:28:00;7.22;;;1.50;;
72517;SDS011;60540;51.178;6.738;2022-09-27T16:30:26;2.97;;;1.20;;
72517;SDS011;60540;51.178;6.738;2022-09-27T16:32:52;2.13;;;1.27;;
72517;SDS011;60540;51.178;6.738;2022-09-27T16:35:19;2.05;;;1.08;;
72517;SDS011;60540;51.178;6.738;2022-09-27T16:37:45;1.83;;;1.00;;
72517;SDS011;60540;51.178;6.738;2022-09-27T16:40:11;2.33;;;1.15;;
72517;SDS011;60540;51.178;6.738;2022-09-27T16:42:38;1.67;;;0.95;;
72517;SDS011;60540;51.178;6.738;2022-09-27T16:45:04;1.27;;;0.68;;
72517;SDS011;60540;51.178;6.738;2022-09-27T16:47:30;5.25;;;1.48;;
72517;SDS011;60540;51.178;6.738;2022-09-27T16:49:56;2.28;;;1.10;;
72517;SDS011;60540;51.178;6.738;2022-09-27T16:52:41;2.50;;;1.00;;
72517;SDS011;60540;51.178;6.738;2022-09-27T16:57:33;1.80;;;1.00;;
72517;SDS011;60540;51.178;6.738;2022-09-27T16:59:59;2.20;;;1.30;;
72517;SDS011;60540;51.178;6.738;2022-09-27T17:02:25;3.22;;;1.10;;
72517;SDS011;60540;51.178;6.738;2022-09-27T17:04:51;3.22;;;1.33;;
72517;SDS011;60540;51.178;6.738;2022-09-27T17:07:17;2.42;;;1.48;;
72517;SDS011;60540;51.178;6.738;2022-09-27T17:09:43;3.08;;;1.38;;
72517;SDS011;60540;51.178;6.738;2022-09-27T17:12:09;2.47;;;1.20;;
72517;SDS011;60540;51.178;6.738;2022-09-27T17:14:35;2.45;;;1.35;;
72517;SDS011;60540;51.178;6.738;2022-09-27T17:17:00;2.13;;;1.10;;
72517;SDS011;60540;51.178;6.738;2022-09-27T17:19:26;4.40;;;1.40;;
72517;SDS011;60540;51.178;6.738;2022-09-27T17:21:52;2.72;;;1.30;;
72517;SDS011;60540;51.178;6.738;2022-09-27T17:24:20;3.08;;;1.80;;
72517;SDS011;60540;51.178;6.738;2022-09-27T17:26:46;3.05;;;1.30;;
72517;SDS011;60540;51.178;6.738;2022-09-27T17:29:12;6.38;;;2.28;;
72517;SDS011;60540;51.178;6.738;2022-09-27T17:31:38;2.10;;;1.25;;
72517;SDS011;60540;51.178;6.738;2022-09-27T17:34:05;3.50;;;1.30;;
72517;SDS011;60540;51.178;6.738;2022-09-27T17:36:32;7.25;;;1.52;;